createdAt,value
2022-10-30T00:02:28.567Z,62.78
2022-10-30T00:07:32.837Z,62.80
2022-10-30T00:12:37.279Z,62.82
2022-10-30T00:17:41.349Z,62.91
2022-10-30T00:22:45.417Z,62.90
2022-10-30T00:27:49.659Z,62.96
2022-10-30T00:32:53.897Z,62.84
2022-10-30T00:37:58.567Z,62.92
2022-10-30T00:43:02.761Z,62.89
2022-10-30T00:48:07.219Z,62.97
2022-10-30T00:53:12.658Z,62.89
2022-10-30T00:58:18.117Z,62.86
2022-10-30T01:03:22.441Z,62.81
2022-10-30T01:08:26.927Z,62.71
2022-10-30T01:13:32.092Z,62.92
2022-10-30T01:18:39.864Z,62.89
2022-10-30T01:23:49.268Z,62.80
2022-10-30T01:29:07.991Z,62.75
2022-10-30T01:34:18.363Z,62.63
2022-10-30T01:39:24.449Z,62.83
2022-10-30T01:44:31.440Z,62.73
2022-10-30T01:49:46.928Z,62.74
2022-10-30T01:54:54.741Z,62.77
2022-10-30T02:00:00.487Z,62.79
2022-10-30T02:05:05.691Z,62.82
2022-10-30T02:10:11.602Z,62.75
2022-10-30T02:15:16.279Z,62.83
2022-10-30T02:20:21.166Z,62.87
2022-10-30T02:25:25.378Z,62.80
2022-10-30T02:30:29.596Z,62.75
2022-10-30T02:35:35.128Z,62.76
2022-10-30T02:40:39.098Z,62.67
2022-10-30T02:45:43.312Z,62.68
2022-10-30T02:50:47.540Z,62.69
2022-10-30T02:55:51.767Z,62.75
2022-10-30T03:00:56.051Z,62.72
2022-10-30T03:06:01.693Z,62.71
2022-10-30T03:11:07.793Z,62.68
2022-10-30T03:16:12.837Z,62.75
2022-10-30T03:21:18.518Z,62.66
2022-10-30T03:26:23.001Z,62.74
2022-10-30T03:31:27.242Z,62.69
2022-10-30T03:36:31.262Z,62.74
2022-10-30T03:41:35.701Z,62.59
2022-10-30T03:46:40.133Z,62.78
2022-10-30T03:51:44.387Z,62.70
2022-10-30T03:56:48.109Z,62.64
2022-10-30T04:01:52.401Z,62.59
2022-10-30T04:06:56.907Z,62.64
2022-10-30T04:12:01.428Z,62.55
2022-10-30T04:17:06.408Z,62.70
2022-10-30T04:22:11.091Z,62.70
2022-10-30T04:27:15.218Z,62.71
2022-10-30T04:32:19.889Z,62.56
2022-10-30T04:37:23.932Z,62.64
2022-10-30T04:42:28.239Z,62.55
2022-10-30T04:52:37.498Z,62.81
2022-10-30T04:57:41.824Z,62.63
2022-10-30T05:02:46.291Z,62.67
2022-10-30T05:07:50.548Z,62.67
2022-10-30T05:12:54.982Z,62.49
2022-10-30T05:17:59.479Z,62.62
2022-10-30T05:23:03.923Z,62.67
2022-10-30T05:28:08.562Z,62.73
2022-10-30T05:33:13.317Z,62.76
2022-10-30T05:38:17.440Z,62.68
2022-10-30T05:43:21.687Z,62.64
2022-10-30T05:48:25.921Z,62.68
2022-10-30T05:53:30.169Z,62.74
2022-10-30T05:58:34.368Z,62.73
2022-10-30T06:03:38.595Z,62.73
2022-10-30T06:08:42.851Z,62.61
2022-10-30T06:13:48.089Z,62.77
2022-10-30T06:18:52.310Z,62.69
2022-10-30T06:23:56.442Z,62.64
2022-10-30T06:29:00.521Z,62.68
2022-10-30T06:34:05.630Z,62.65
2022-10-30T06:39:09.811Z,62.65
2022-10-30T06:44:14.169Z,62.63
2022-10-30T06:49:18.629Z,62.62
2022-10-30T06:54:22.831Z,62.63
2022-10-30T06:59:27.087Z,62.65
2022-10-30T07:04:31.429Z,62.68
2022-10-30T07:09:35.666Z,62.59
2022-10-30T07:14:40.094Z,62.61
2022-10-30T07:19:44.117Z,62.58
2022-10-30T07:24:48.208Z,62.56
2022-10-30T07:29:52.287Z,62.65
2022-10-30T07:34:56.522Z,62.71
2022-10-30T07:40:00.797Z,62.58
2022-10-30T07:45:05.826Z,62.66
2022-10-30T07:50:11.132Z,62.58
2022-10-30T07:55:15.798Z,62.69
2022-10-30T08:00:19.657Z,62.68
2022-10-30T08:05:27.119Z,62.55
2022-10-30T08:10:34.737Z,62.57
2022-10-30T08:15:39.278Z,62.65
2022-10-30T08:26:00.478Z,62.42
2022-10-30T08:31:05.703Z,62.48
2022-10-30T08:36:10.604Z,62.31
2022-10-30T08:41:14.977Z,62.41
2022-10-30T08:46:18.917Z,62.28
2022-10-30T08:51:23.029Z,62.28
2022-10-30T08:56:27.877Z,62.20
2022-10-30T09:01:32.100Z,62.17
2022-10-30T09:06:36.239Z,62.29
2022-10-30T09:11:40.767Z,62.26
2022-10-30T09:16:45.107Z,62.13
2022-10-30T09:21:49.439Z,62.14
2022-10-30T09:26:53.919Z,61.91
2022-10-30T09:31:58.151Z,61.97
2022-10-30T09:37:02.484Z,61.76
2022-10-30T09:42:15.080Z,61.85
2022-10-30T09:47:23.650Z,61.91
2022-10-30T09:52:32.958Z,61.76
2022-10-30T09:57:42.940Z,61.87
2022-10-30T10:03:05.787Z,61.77
2022-10-30T10:08:15.148Z,61.65
2022-10-30T10:13:26.365Z,61.82
2022-10-30T10:23:45.497Z,61.88
2022-10-30T10:28:57.367Z,61.91
2022-10-30T10:34:10.196Z,62.07
2022-10-30T10:39:21.187Z,62.29
2022-10-30T10:44:31.557Z,62.24
2022-10-30T10:49:42.662Z,62.28
2022-10-30T10:54:49.857Z,62.24
2022-10-30T10:59:56.067Z,62.40
2022-10-30T11:05:05.605Z,62.34
2022-10-30T11:10:14.362Z,62.37
2022-10-30T11:15:28.381Z,62.46
2022-10-30T11:20:37.221Z,62.44
2022-10-30T11:25:41.673Z,62.41
2022-10-30T11:30:45.597Z,62.42
2022-10-30T11:35:49.829Z,62.44
2022-10-30T11:40:54.472Z,62.47
2022-10-30T11:45:59.038Z,62.61
2022-10-30T11:51:03.908Z,62.49
2022-10-30T11:56:15.078Z,62.57
2022-10-30T12:01:23.226Z,62.34
2022-10-30T12:06:29.257Z,62.50
2022-10-30T12:11:34.128Z,62.36
2022-10-30T12:16:45.515Z,62.53
2022-10-30T12:21:50.691Z,62.51
2022-10-30T12:26:56.010Z,62.61
2022-10-30T12:32:01.830Z,62.45
2022-10-30T12:37:09.427Z,62.55
2022-10-30T12:42:15.427Z,62.45
2022-10-30T12:47:26.488Z,62.42
2022-10-30T12:52:34.371Z,62.36
2022-10-30T12:57:41.851Z,62.39
2022-10-30T13:02:51.978Z,62.41
2022-10-30T13:08:00.992Z,62.53
2022-10-30T13:13:10.780Z,62.44
2022-10-30T13:18:16.892Z,62.65
2022-10-30T13:23:24.255Z,62.69
2022-10-30T13:28:33.447Z,62.44
2022-10-30T13:33:40.891Z,62.51
2022-10-30T13:38:51.919Z,62.53
2022-10-30T13:43:59.228Z,62.43
2022-10-30T13:49:18.471Z,62.55
2022-10-30T13:54:23.718Z,62.47
2022-10-30T13:59:42.228Z,62.52
2022-10-30T14:04:51.157Z,62.54
2022-10-30T14:09:58.971Z,62.47
2022-10-30T14:15:05.907Z,62.51
2022-10-30T14:20:29.038Z,62.51
2022-10-30T14:25:32.995Z,62.55
2022-10-30T14:30:37.228Z,62.59
2022-10-30T14:35:41.727Z,62.57
2022-10-30T14:40:47.899Z,62.56
2022-10-30T14:45:53.549Z,62.55
2022-10-30T14:51:02.040Z,62.56
2022-10-30T14:56:09.479Z,62.50
2022-10-30T15:01:26.135Z,62.59
2022-10-30T15:06:32.738Z,62.55
2022-10-30T15:11:43.902Z,62.68
2022-10-30T15:16:50.207Z,62.66
2022-10-30T15:21:55.329Z,62.66
2022-10-30T15:27:00.759Z,62.79
2022-10-30T15:32:05.882Z,62.84
2022-10-30T15:37:13.392Z,62.82
2022-10-30T15:42:17.527Z,62.78
2022-10-30T15:47:21.618Z,62.69
2022-10-30T15:52:26.659Z,62.70
2022-10-30T15:57:57.461Z,62.86
2022-10-30T16:03:04.039Z,62.69
2022-10-30T16:08:12.790Z,62.86
2022-10-30T16:13:18.158Z,62.78
2022-10-30T16:18:23.410Z,62.79
2022-10-30T16:23:27.799Z,62.79
2022-10-30T16:28:33.132Z,62.77
2022-10-30T16:33:38.518Z,62.99
2022-10-30T16:38:43.892Z,62.94
2022-10-30T16:44:03.867Z,62.81
2022-10-30T16:49:12.938Z,62.82
2022-10-30T16:54:21.958Z,62.90
2022-10-30T16:59:34.452Z,62.87
2022-10-30T17:04:42.104Z,62.88
2022-10-30T17:09:47.258Z,62.95
2022-10-30T17:14:52.679Z,62.98
2022-10-30T17:19:57.998Z,62.91
2022-10-30T17:25:02.508Z,62.87
2022-10-30T17:30:21.183Z,63.01
2022-10-30T17:35:25.410Z,62.85
2022-10-30T17:40:29.356Z,62.95
2022-10-30T17:45:33.570Z,63.01
2022-10-30T17:50:37.803Z,62.86
2022-10-30T17:55:42.477Z,63.05
2022-10-30T18:00:47.203Z,63.07
2022-10-30T18:05:51.829Z,62.89
2022-10-30T18:10:56.058Z,62.86
2022-10-30T18:16:00.101Z,62.96
2022-10-30T18:21:04.420Z,62.88
2022-10-30T18:26:14.496Z,63.07
2022-10-30T18:31:19.543Z,63.03
2022-10-30T18:36:24.200Z,63.00
2022-10-30T18:41:31.590Z,63.03
2022-10-30T18:46:36.232Z,62.98
2022-10-30T18:51:40.762Z,62.99
2022-10-30T18:56:45.288Z,62.94
2022-10-30T19:01:49.536Z,62.99
2022-10-30T19:06:54.048Z,62.96
2022-10-30T19:11:58.695Z,63.07
2022-10-30T19:17:02.822Z,63.02
2022-10-30T19:22:06.990Z,63.10
2022-10-30T19:27:11.208Z,63.10
2022-10-30T19:32:15.444Z,63.09
2022-10-30T19:37:20.209Z,63.09
2022-10-30T19:42:24.298Z,63.20
2022-10-30T19:47:28.438Z,63.10
2022-10-30T19:52:32.717Z,63.21
2022-10-30T19:57:37.252Z,63.16
2022-10-30T20:02:41.358Z,63.07
2022-10-30T20:07:45.621Z,63.05
2022-10-30T20:17:54.974Z,63.11
2022-10-30T20:22:59.076Z,63.18
2022-10-30T20:28:06.794Z,63.13
2022-10-30T20:33:12.475Z,63.11
2022-10-30T20:38:18.062Z,63.31
2022-10-30T20:43:23.738Z,63.11
2022-10-30T20:48:28.586Z,63.11
2022-10-30T20:53:32.723Z,63.09
2022-10-30T20:58:37.250Z,63.10
2022-10-30T21:03:41.292Z,63.13
2022-10-30T21:08:45.387Z,63.12
2022-10-30T21:13:49.598Z,63.14
2022-10-30T21:18:53.828Z,63.19
2022-10-30T21:23:58.237Z,63.21
2022-10-30T21:29:03.254Z,63.19
2022-10-30T21:34:07.651Z,63.12
2022-10-30T21:39:11.879Z,63.08
2022-10-30T21:44:16.345Z,63.18
2022-10-30T21:49:20.782Z,63.16
2022-10-30T21:54:24.898Z,63.14
2022-10-30T21:59:28.881Z,63.14
2022-10-30T22:04:33.248Z,63.19
2022-10-30T22:09:37.712Z,63.23
2022-10-30T22:14:41.920Z,63.12
2022-10-30T22:19:46.247Z,63.10
2022-10-30T22:24:50.177Z,63.15
2022-10-30T22:29:54.507Z,63.18
2022-10-30T22:34:58.855Z,63.20
2022-10-30T22:40:03.191Z,63.16
2022-10-30T22:45:08.597Z,63.18
2022-10-30T22:50:12.910Z,63.21
2022-10-30T22:55:17.488Z,63.15
2022-10-30T23:00:25.329Z,63.13
2022-10-30T23:05:29.671Z,63.13
2022-10-30T23:10:33.798Z,63.05
2022-10-30T23:15:40.278Z,63.11
2022-10-30T23:20:44.738Z,63.19
2022-10-30T23:25:48.857Z,63.09
2022-10-30T23:30:52.989Z,63.10
2022-10-30T23:36:00.052Z,63.20
2022-10-30T23:41:04.518Z,63.14
2022-10-30T23:46:08.747Z,63.20
2022-10-30T23:51:12.458Z,63.19
2022-10-30T23:56:16.488Z,63.18
